Погода Пати-ду-Алферисна 2 недели

Рио-де-Жанейро, Бразилия

15 - 28 июня
  • 15июня
    Сегодня
    +16°
    +26°
    Ясно и безоблачно
    ВремяПогодаТемператураВлажностьДавлениеВетер, м/сВероятность осадков
    00:00Ясно и безоблачно+17°C70 %700 мм3.4 м/с5 %
    03:00Ясно и безоблачно+16°C69 %700 мм3.5 м/с5 %
    06:00Ясно и безоблачно+16°C61 %700 мм3.4 м/с5 %
    09:00Ясно и безоблачно+20°C54 %702 мм3.7 м/с5 %
    12:00Ясно и безоблачно+25°C42 %702 мм3.5 м/с5 %
    15:00Ясно и безоблачно+25°C43 %700 мм3.0 м/с5 %
    18:00Ясно и безоблачно+19°C56 %699 мм3.1 м/с5 %
    21:00Ясно и безоблачно+18°C61 %699 мм3.2 м/с5 %
  • 16июня
    Воскресенье
    +16°
    +26°
    Ясно и безоблачно
    ВремяПогодаТемператураВлажностьДавлениеВетер, м/сВероятность осадков
    00:00Ясно и безоблачно+18°C68 %699 мм3.2 м/с5 %
    03:00Ясно и безоблачно+17°C75 %699 мм3.2 м/с5 %
    06:00Ясно и безоблачно+17°C77 %699 мм3.2 м/с5 %
    09:00Ясно и безоблачно+20°C65 %700 мм4.1 м/с5 %
    12:00Ясно и безоблачно+25°C54 %700 мм3.7 м/с5 %
    15:00Ясно и безоблачно+25°C54 %698 мм3.4 м/с5 %
    18:00Ясно и безоблачно+20°C65 %698 мм3.5 м/с5 %
    21:00Ясно и безоблачно+19°C72 %698 мм3.6 м/с5 %
  • 17июня
    Понедельник
    +16°
    +26°
    Ясно и безоблачно
    ВремяПогодаТемператураВлажностьДавлениеВетер, м/сВероятность осадков
    00:00Ясно и безоблачно+18°C76 %698 мм3.6 м/с5 %
    03:00Ясно и безоблачно+17°C79 %697 мм3.3 м/с5 %
    06:00Ясно и безоблачно+17°C80 %697 мм3.1 м/с5 %
    09:00Ясно и безоблачно+20°C67 %699 мм4.2 м/с5 %
    12:00Ясно и безоблачно+25°C55 %698 мм3.9 м/с5 %
    15:00Ясно и безоблачно+25°C55 %697 мм3.6 м/с5 %
    18:00Ясно и безоблачно+20°C64 %696 мм3.6 м/с5 %
    21:00Ясно и безоблачно+19°C69 %697 мм3.5 м/с5 %
  • 18июня
    Вторник
    +17°
    +26°
    Ясно и безоблачно
    ВремяПогодаТемператураВлажностьДавлениеВетер, м/сВероятность осадков
    00:00Ясно и безоблачно+18°C72 %697 мм4.0 м/с5 %
    03:00Ясно и безоблачно+17°C76 %696 мм4.0 м/с5 %
    06:00Ясно и безоблачно+17°C73 %696 мм3.6 м/с5 %
    09:00Ясно и безоблачно+20°C62 %698 мм4.5 м/с5 %
    12:00Ясно и безоблачно+25°C53 %698 мм3.9 м/с5 %
    15:00Ясно и безоблачно+26°C50 %697 мм2.7 м/с5 %
    18:00Ясно и безоблачно+20°C60 %696 мм2.6 м/с5 %
    21:00Ясно и безоблачно+19°C62 %697 мм2.7 м/с5 %
  • 19июня
    Среда
    +17°
    +27°
    Ясно и безоблачно
    ВремяПогодаТемператураВлажностьДавлениеВетер, м/сВероятность осадков
    00:00Ясно и безоблачно+18°C67 %697 мм2.7 м/с5 %
    03:00Ясно и безоблачно+17°C69 %696 мм2.8 м/с5 %
    06:00Ясно и безоблачно+17°C71 %697 мм2.9 м/с5 %
    09:00Ясно и безоблачно+21°C62 %699 мм3.7 м/с5 %
    12:00Ясно и безоблачно+26°C54 %699 мм3.9 м/с5 %
    15:00Ясно и безоблачно+26°C48 %698 мм2.8 м/с5 %
    18:00Ясно и безоблачно+21°C60 %697 мм2.6 м/с5 %
    21:00Ясно и безоблачно+19°C62 %698 мм2.6 м/с5 %
Мы используем cookies
Соглашаюсь